createdAt,value
2018-03-04T00:00:50.162Z,50.60
2018-03-04T00:03:18.390Z,51.20
2018-03-04T00:05:46.629Z,50.40
2018-03-04T00:08:16.045Z,50.80
2018-03-04T00:10:44.290Z,50.40
2018-03-04T00:13:12.677Z,50.70
2018-03-04T00:15:42.926Z,51.30
2018-03-04T00:18:11.943Z,50.70
2018-03-04T00:20:40.196Z,50.60
2018-03-04T00:23:08.460Z,51.10
2018-03-04T00:25:36.698Z,53.30
2018-03-04T00:28:04.946Z,53.40
2018-03-04T00:30:33.528Z,53.80
2018-03-04T00:33:01.774Z,54.00
2018-03-04T00:35:30.241Z,53.60
2018-03-04T00:37:58.513Z,54.30
2018-03-04T00:40:26.765Z,55.00
2018-03-04T00:42:56.088Z,54.40
2018-03-04T00:45:24.355Z,54.00
2018-03-04T00:47:52.601Z,53.80
2018-03-04T00:50:20.851Z,53.50
2018-03-04T00:52:49.949Z,53.40
2018-03-04T00:55:18.190Z,53.30
2018-03-04T00:57:46.461Z,53.30
2018-03-04T01:00:14.709Z,54.50
2018-03-04T01:02:43.049Z,53.80
2018-03-04T01:05:12.326Z,55.00
2018-03-04T01:07:40.603Z,55.00
2018-03-04T01:10:08.852Z,54.10
2018-03-04T01:12:37.094Z,54.00
2018-03-04T01:15:05.840Z,53.60
2018-03-04T01:17:34.084Z,54.00
2018-03-04T01:20:02.329Z,53.50
2018-03-04T01:22:31.364Z,53.40
2018-03-04T01:24:59.604Z,53.40
2018-03-04T01:27:27.853Z,53.70
2018-03-04T01:29:56.885Z,53.90
2018-03-04T01:32:25.621Z,53.90
2018-03-04T01:34:53.862Z,54.30
2018-03-04T01:37:22.245Z,54.40
2018-03-04T01:39:50.752Z,54.40
2018-03-04T01:42:18.980Z,54.50
2018-03-04T01:44:47.246Z,55.20
2018-03-04T01:47:15.495Z,54.80
2018-03-04T01:49:43.737Z,55.50
2018-03-04T01:52:12.006Z,54.70
2018-03-04T01:54:40.249Z,55.20
2018-03-04T01:57:09.261Z,55.90
2018-03-04T01:59:37.663Z,55.80
2018-03-04T02:02:05.906Z,55.30
2018-03-04T02:04:34.158Z,55.00
2018-03-04T02:07:02.429Z,54.90
2018-03-04T02:09:30.673Z,55.90
2018-03-04T02:11:58.921Z,56.10
2018-03-04T02:14:27.300Z,55.70
2018-03-04T02:16:55.540Z,55.50
2018-03-04T02:19:23.793Z,55.60
2018-03-04T02:21:52.469Z,54.90
2018-03-04T02:24:20.724Z,54.60
2018-03-04T02:26:48.969Z,56.70
2018-03-04T02:29:17.232Z,55.60
2018-03-04T02:31:45.473Z,55.20
2018-03-04T02:34:14.126Z,54.80
2018-03-04T02:36:42.389Z,55.50
2018-03-04T02:39:11.401Z,55.20
2018-03-04T02:41:39.668Z,55.10
2018-03-04T02:44:08.185Z,55.70
2018-03-04T02:46:36.426Z,55.00
2018-03-04T02:49:04.673Z,56.30
2018-03-04T02:51:33.709Z,56.70
2018-03-04T02:54:01.965Z,56.70
2018-03-04T02:56:30.970Z,56.20
2018-03-04T02:58:59.374Z,56.10
2018-03-04T03:01:27.706Z,55.90
2018-03-04T03:03:55.945Z,55.30
2018-03-04T03:06:24.518Z,57.30
2018-03-04T03:08:52.762Z,56.50
2018-03-04T03:11:21.008Z,55.60
2018-03-04T03:13:50.046Z,56.50
2018-03-04T03:16:18.295Z,56.50
2018-03-04T03:18:47.302Z,57.10
2018-03-04T03:21:16.329Z,56.10
2018-03-04T03:23:44.570Z,56.00
2018-03-04T03:26:12.825Z,56.40
2018-03-04T03:28:41.465Z,55.30
2018-03-04T03:31:09.711Z,55.50
2018-03-04T03:33:37.953Z,55.50
2018-03-04T03:36:07.193Z,56.10
2018-03-04T03:38:35.441Z,56.00
2018-03-04T03:41:03.689Z,55.60
2018-03-04T03:43:31.958Z,56.70
2018-03-04T03:46:00.206Z,55.80
2018-03-04T03:48:28.445Z,55.90
2018-03-04T03:50:57.797Z,57.10
2018-03-04T03:53:26.073Z,57.10
2018-03-04T03:55:54.321Z,56.40
2018-03-04T03:58:22.588Z,56.70
2018-03-04T04:00:51.597Z,56.00
2018-03-04T04:03:20.844Z,55.90
2018-03-04T04:05:49.205Z,55.60
2018-03-04T04:08:17.442Z,55.70
2018-03-04T04:10:45.681Z,56.10
2018-03-04T04:13:14.352Z,56.50
2018-03-04T04:15:42.598Z,56.30
2018-03-04T04:18:10.849Z,55.90
2018-03-04T04:20:41.116Z,55.70
2018-03-04T04:23:09.451Z,55.70
2018-03-04T04:25:38.608Z,55.70
2018-03-04T04:28:07.602Z,55.70
2018-03-04T04:30:35.843Z,55.90
2018-03-04T04:33:04.086Z,55.60
2018-03-04T04:35:32.414Z,55.80
2018-03-04T04:38:00.961Z,56.10
2018-03-04T04:40:29.965Z,56.10
2018-03-04T04:42:58.237Z,56.00
2018-03-04T04:45:26.469Z,55.70
2018-03-04T04:47:54.721Z,56.30
2018-03-04T04:50:22.989Z,56.10
2018-03-04T04:52:51.233Z,56.80
2018-03-04T04:55:20.252Z,55.60
2018-03-04T04:57:48.954Z,55.60
2018-03-04T05:00:17.198Z,57.40
2018-03-04T05:02:45.449Z,56.10
2018-03-04T05:05:13.718Z,55.70
2018-03-04T05:07:41.966Z,55.90
2018-03-04T05:10:10.210Z,55.90
2018-03-04T05:12:38.473Z,56.10
2018-03-04T05:15:06.714Z,56.50
2018-03-04T05:17:34.965Z,56.00
2018-03-04T05:20:03.721Z,56.60
2018-03-04T05:22:31.969Z,56.30
2018-03-04T05:25:00.221Z,56.50
2018-03-04T05:27:28.483Z,56.20
2018-03-04T05:29:56.730Z,56.90
2018-03-04T05:32:24.973Z,56.80
2018-03-04T05:34:53.240Z,56.70
2018-03-04T05:37:21.489Z,56.30
2018-03-04T05:39:50.122Z,56.60
2018-03-04T05:42:19.437Z,57.30
2018-03-04T05:44:47.687Z,57.30
2018-03-04T05:47:15.929Z,56.90
2018-03-04T05:49:44.279Z,56.70
2018-03-04T05:52:12.527Z,56.50
2018-03-04T05:54:40.771Z,56.70
2018-03-04T05:57:09.033Z,56.80
2018-03-04T05:59:37.282Z,56.20
2018-03-04T06:02:05.526Z,56.50
2018-03-04T06:04:34.005Z,56.70
2018-03-04T06:07:02.246Z,56.80
2018-03-04T06:09:30.489Z,56.80
2018-03-04T06:11:58.753Z,56.80
2018-03-04T06:14:27.770Z,57.60
2018-03-04T06:16:56.016Z,57.60
2018-03-04T06:19:24.281Z,57.40
2018-03-04T06:21:52.531Z,57.60
2018-03-04T06:24:20.773Z,57.40
2018-03-04T06:26:49.373Z,56.80
2018-03-04T06:29:17.617Z,57.10
2018-03-04T06:31:45.865Z,57.20
2018-03-04T06:34:14.897Z,57.20
2018-03-04T06:36:43.141Z,57.10
2018-03-04T06:39:11.397Z,57.20
2018-03-04T06:41:39.942Z,58.00
2018-03-04T06:44:08.188Z,57.60
2018-03-04T06:46:36.434Z,57.60
2018-03-04T06:49:05.093Z,57.30
2018-03-04T06:51:33.342Z,57.30
2018-03-04T06:54:01.590Z,57.20
2018-03-04T06:56:29.856Z,56.90
2018-03-04T06:58:58.105Z,57.00
2018-03-04T07:01:26.364Z,56.90
2018-03-04T07:03:54.741Z,57.20
2018-03-04T07:06:23.093Z,58.70
2018-03-04T07:08:52.107Z,58.10
2018-03-04T07:11:20.813Z,57.40
2018-03-04T07:13:49.052Z,57.50
2018-03-04T07:16:17.297Z,57.40
2018-03-04T07:18:45.565Z,58.00
2018-03-04T07:21:13.814Z,57.60
2018-03-04T07:23:42.057Z,58.00
2018-03-04T07:26:11.094Z,57.30
2018-03-04T07:28:39.337Z,57.30
2018-03-04T07:31:07.972Z,57.30
2018-03-04T07:33:36.603Z,57.00
2018-03-04T07:36:04.788Z,56.80
2018-03-04T07:38:33.037Z,57.00
2018-03-04T07:41:01.309Z,57.50
2018-03-04T07:43:30.008Z,57.00
2018-03-04T07:45:59.021Z,56.70
2018-03-04T07:48:27.284Z,56.70
2018-03-04T07:50:55.526Z,56.80
2018-03-04T07:53:23.774Z,57.70
2018-03-04T07:55:52.229Z,57.80
2018-03-04T07:58:20.469Z,57.60
2018-03-04T08:00:49.136Z,57.40
2018-03-04T08:03:17.388Z,57.90
2018-03-04T08:05:45.632Z,58.70
2018-03-04T08:08:13.874Z,58.20
2018-03-04T08:10:42.173Z,58.60
2018-03-04T08:13:11.244Z,57.60
2018-03-04T08:15:39.501Z,57.50
2018-03-04T08:18:08.245Z,57.70
2018-03-04T08:20:37.253Z,58.50
2018-03-04T08:23:05.573Z,58.40
2018-03-04T08:25:35.657Z,58.30
2018-03-04T08:28:15.758Z,58.10
2018-03-04T08:30:44.025Z,57.80
2018-03-04T08:33:12.273Z,58.10
2018-03-04T08:35:40.517Z,58.30
2018-03-04T08:38:08.848Z,57.90
2018-03-04T08:40:37.170Z,58.30
2018-03-04T08:43:06.173Z,58.40
2018-03-04T08:45:35.797Z,58.20
2018-03-04T08:48:04.041Z,58.10
2018-03-04T08:50:32.293Z,58.20
2018-03-04T08:53:00.565Z,58.10
2018-03-04T08:55:28.812Z,58.20
2018-03-04T08:57:57.050Z,57.80
2018-03-04T09:00:26.402Z,57.10
2018-03-04T09:02:54.649Z,57.10
2018-03-04T09:05:22.901Z,56.80
2018-03-04T09:07:51.173Z,56.50
2018-03-04T09:10:19.420Z,56.90
2018-03-04T09:12:47.661Z,57.00
2018-03-04T09:15:16.701Z,56.70
2018-03-04T09:17:44.953Z,56.60
2018-03-04T09:20:13.204Z,57.30
2018-03-04T09:22:41.809Z,57.40
2018-03-04T09:25:10.146Z,57.60
2018-03-04T09:27:39.149Z,57.90
2018-03-04T09:30:08.182Z,57.90
2018-03-04T09:32:36.571Z,57.90
2018-03-04T09:35:04.794Z,58.60
2018-03-04T09:37:33.059Z,57.80
2018-03-04T09:40:01.302Z,57.70
2018-03-04T09:42:29.541Z,57.30
2018-03-04T09:44:58.145Z,56.30
2018-03-04T09:47:26.634Z,56.70
2018-03-04T09:49:54.872Z,56.50
2018-03-04T09:52:23.901Z,56.30
2018-03-04T09:54:52.145Z,56.20
2018-03-04T09:57:20.396Z,56.30
2018-03-04T09:59:48.669Z,56.20
2018-03-04T10:02:16.920Z,55.70
2018-03-04T10:04:45.150Z,55.50
2018-03-04T10:07:13.473Z,55.80
2018-03-04T10:09:41.716Z,55.90
2018-03-04T10:12:09.960Z,56.30
2018-03-04T10:14:38.991Z,55.40
2018-03-04T10:17:07.237Z,55.30
2018-03-04T10:19:35.481Z,54.30
2018-03-04T10:22:03.765Z,54.20
2018-03-04T10:24:32.133Z,53.90
2018-03-04T10:27:00.386Z,53.80
2018-03-04T10:29:28.970Z,53.40
2018-03-04T10:31:57.243Z,53.00
2018-03-04T10:34:25.497Z,53.40
2018-03-04T10:36:53.778Z,54.00
2018-03-04T10:39:22.029Z,54.20
2018-03-04T10:41:50.274Z,53.00
2018-03-04T10:44:18.559Z,52.50
2018-03-04T10:46:46.809Z,52.60
2018-03-04T10:49:15.349Z,52.90
2018-03-04T10:51:44.746Z,53.10
2018-03-04T10:54:13.793Z,51.30
2018-03-04T10:56:42.044Z,51.20
2018-03-04T10:59:10.872Z,51.60
2018-03-04T11:01:44.089Z,51.80
2018-03-04T11:04:12.372Z,51.90
2018-03-04T11:06:40.654Z,51.20
2018-03-04T11:09:08.907Z,51.60
2018-03-04T11:11:37.561Z,50.50
2018-03-04T11:14:05.814Z,50.10
2018-03-04T11:16:34.075Z,51.10
2018-03-04T11:19:02.346Z,50.60
2018-03-04T11:21:31.370Z,49.70
2018-03-04T11:23:59.685Z,49.60
2018-03-04T11:26:27.968Z,50.90
2018-03-04T11:28:56.226Z,50.10
2018-03-04T11:31:24.522Z,47.50
2018-03-04T11:33:52.973Z,46.30
2018-03-04T11:36:21.233Z,48.00
2018-03-04T11:38:49.486Z,46.70
2018-03-04T11:41:17.762Z,46.70
2018-03-04T11:43:46.774Z,46.20
2018-03-04T11:46:15.099Z,46.10
2018-03-04T11:48:43.377Z,46.00
2018-03-04T11:51:12.173Z,45.90
2018-03-04T11:53:40.417Z,45.00
2018-03-04T11:56:09.001Z,46.00
2018-03-04T11:58:37.334Z,47.10
2018-03-04T12:01:06.349Z,44.70
2018-03-04T12:03:34.625Z,44.50
2018-03-04T12:06:02.878Z,43.10
2018-03-04T12:08:31.139Z,41.80
2018-03-04T12:10:59.409Z,42.90
2018-03-04T12:13:27.880Z,41.50
2018-03-04T12:15:56.155Z,40.80
2018-03-04T12:18:24.722Z,40.70
2018-03-04T12:20:52.973Z,40.60
2018-03-04T12:23:21.225Z,41.20
2018-03-04T12:25:49.519Z,36.30
2018-03-04T12:28:18.522Z,42.10
2018-03-04T12:30:46.776Z,41.90
2018-03-04T12:33:15.254Z,39.40
2018-03-04T12:35:44.276Z,38.10
2018-03-04T12:38:12.527Z,38.00
2018-03-04T12:40:40.849Z,38.90
2018-03-04T12:43:09.100Z,37.30
2018-03-04T12:45:37.359Z,38.00
2018-03-04T12:48:05.642Z,37.00
2018-03-04T12:50:34.185Z,37.20
2018-03-04T12:53:02.749Z,36.70
2018-03-04T12:55:31.040Z,37.90
2018-03-04T12:57:59.277Z,37.70
2018-03-04T13:00:27.716Z,36.00
2018-03-04T13:02:58.114Z,35.20
2018-03-04T13:05:26.361Z,34.70
2018-03-04T13:07:54.728Z,37.20
2018-03-04T13:10:23.138Z,37.40
2018-03-04T13:12:52.373Z,36.20
2018-03-04T13:15:20.745Z,34.70
2018-03-04T13:17:49.155Z,34.70
2018-03-04T13:20:18.429Z,34.50
2018-03-04T13:22:47.732Z,34.30
2018-03-04T13:25:16.565Z,33.40
2018-03-04T13:27:44.823Z,33.80
2018-03-04T13:30:13.855Z,34.60
2018-03-04T13:32:43.117Z,34.50
2018-03-04T13:35:12.137Z,34.40
2018-03-04T13:37:40.769Z,34.40
2018-03-04T13:40:09.181Z,33.90
2018-03-04T13:42:38.192Z,31.90
2018-03-04T13:45:08.057Z,31.80
2018-03-04T13:47:36.817Z,33.90
2018-03-04T13:50:05.129Z,33.00
2018-03-04T13:52:34.425Z,31.70
2018-03-04T13:55:02.952Z,31.30
2018-03-04T13:57:33.333Z,31.30
2018-03-04T14:00:01.714Z,31.90
2018-03-04T14:02:30.122Z,32.90
2018-03-04T14:04:59.141Z,33.10
2018-03-04T14:07:27.470Z,33.00
2018-03-04T14:09:56.601Z,32.10
2018-03-04T14:12:27.182Z,33.50
2018-03-04T14:14:55.413Z,33.30
2018-03-04T14:17:24.385Z,35.00
2018-03-04T14:19:54.582Z,34.90
2018-03-04T14:22:22.964Z,34.90
2018-03-04T14:24:51.361Z,35.20
2018-03-04T14:27:20.380Z,35.20
2018-03-04T14:29:49.638Z,35.20
2018-03-04T14:32:18.517Z,34.30
2018-03-04T14:34:47.933Z,34.20
2018-03-04T14:37:16.317Z,34.10
2018-03-04T14:39:45.065Z,34.70
2018-03-04T14:42:13.377Z,35.40
2018-03-04T14:44:41.759Z,35.70
2018-03-04T14:47:10.201Z,36.00
2018-03-04T14:49:38.510Z,36.30
2018-03-04T14:52:06.895Z,36.70
2018-03-04T14:54:35.657Z,37.00
2018-03-04T14:57:03.945Z,36.90
2018-03-04T14:59:32.338Z,37.20
2018-03-04T15:02:00.738Z,37.50
2018-03-04T15:04:29.762Z,38.00
2018-03-04T15:06:59.013Z,38.00
2018-03-04T15:09:27.419Z,38.20
2018-03-04T15:11:56.473Z,38.80
2018-03-04T15:14:24.765Z,38.80
2018-03-04T15:16:53.521Z,38.60
2018-03-04T15:19:21.816Z,39.30
2018-03-04T15:21:50.056Z,39.30
2018-03-04T15:24:18.605Z,39.40
2018-03-04T15:26:47.624Z,39.70
2018-03-04T15:29:15.958Z,39.70
2018-03-04T15:31:44.361Z,39.60
2018-03-04T15:34:13.376Z,40.30
2018-03-04T15:36:41.669Z,40.30
2018-03-04T15:39:10.283Z,40.00
2018-03-04T15:41:38.518Z,39.80
2018-03-04T15:44:06.765Z,39.50
2018-03-04T15:46:35.258Z,39.50
2018-03-04T15:49:04.265Z,40.00
2018-03-04T15:51:32.601Z,40.00
2018-03-04T15:54:00.878Z,40.40
2018-03-04T15:56:29.381Z,40.30
2018-03-04T15:58:59.589Z,40.20
2018-03-04T16:01:28.038Z,40.10
2018-03-04T16:03:56.338Z,40.90
2018-03-04T16:06:24.582Z,41.00
2018-03-04T16:08:52.865Z,40.70
2018-03-04T16:11:21.479Z,40.90
2018-03-04T16:13:49.730Z,41.50
2018-03-04T16:16:18.007Z,41.90
2018-03-04T16:18:46.305Z,41.70
2018-03-04T16:21:14.685Z,41.80
2018-03-04T16:23:43.136Z,42.00
2018-03-04T16:26:11.450Z,42.00
2018-03-04T16:28:40.746Z,41.90
2018-03-04T16:31:09.193Z,41.80
2018-03-04T16:33:37.502Z,42.10
2018-03-04T16:36:05.768Z,42.20
2018-03-04T16:38:34.285Z,42.30
2018-03-04T16:41:03.305Z,42.70
2018-03-04T16:43:31.556Z,42.60
2018-03-04T16:46:00.357Z,42.20
2018-03-04T16:48:30.550Z,42.20
2018-03-04T16:50:58.921Z,42.20
2018-03-04T16:53:27.395Z,42.60
2018-03-04T16:55:56.357Z,42.70
2018-03-04T16:58:24.737Z,42.60
2018-03-04T17:00:53.076Z,42.80
2018-03-04T17:03:22.097Z,43.40
2018-03-04T17:05:50.429Z,43.40
2018-03-04T17:08:18.873Z,43.30
2018-03-04T17:10:47.129Z,42.80
2018-03-04T17:13:15.561Z,43.70
2018-03-04T17:15:44.754Z,42.90
2018-03-04T17:18:13.033Z,43.60
2018-03-04T17:20:41.321Z,43.90
2018-03-04T17:23:09.730Z,43.30
2018-03-04T17:25:40.033Z,43.80
2018-03-04T17:28:09.411Z,43.80
2018-03-04T17:30:39.574Z,43.80
2018-03-04T17:33:08.734Z,43.80
2018-03-04T17:35:37.140Z,43.80
2018-03-04T17:38:05.521Z,44.10
2018-03-04T17:40:34.542Z,44.70
2018-03-04T17:43:02.874Z,44.70
2018-03-04T17:45:31.280Z,43.70
2018-03-04T17:48:00.300Z,44.80
2018-03-04T17:50:28.662Z,44.70
2018-03-04T17:52:57.759Z,44.20
2018-03-04T17:55:26.001Z,44.20
2018-03-04T17:57:54.369Z,44.90
2018-03-04T18:00:23.393Z,44.80
2018-03-04T18:02:52.048Z,44.40
2018-03-04T18:05:20.302Z,44.80
2018-03-04T18:07:48.848Z,44.80
2018-03-04T18:10:17.881Z,44.00
2018-03-04T18:12:46.493Z,43.90
2018-03-04T18:15:14.949Z,45.20
2018-03-04T18:17:43.553Z,44.80
2018-03-04T18:20:12.941Z,44.70
2018-03-04T18:22:43.412Z,45.60
2018-03-04T18:25:12.433Z,44.70
2018-03-04T18:27:41.314Z,44.60
2018-03-04T18:30:09.783Z,44.90
2018-03-04T18:32:38.805Z,45.30
2018-03-04T18:35:07.162Z,45.30
2018-03-04T18:37:36.263Z,45.40
2018-03-04T18:40:04.508Z,45.30
2018-03-04T18:42:32.878Z,45.10
2018-03-04T18:45:01.284Z,45.30
2018-03-04T18:47:30.327Z,45.60
2018-03-04T18:49:58.582Z,44.80
2018-03-04T18:52:27.036Z,45.00
2018-03-04T18:54:56.060Z,45.20
2018-03-04T18:57:24.389Z,45.20
2018-03-04T18:59:53.162Z,45.60
2018-03-04T19:02:21.443Z,45.50
2018-03-04T19:04:49.717Z,45.00
2018-03-04T19:07:17.973Z,45.50
2018-03-04T19:09:46.234Z,45.20
2018-03-04T19:12:14.665Z,45.30
2018-03-04T19:14:43.061Z,44.90
2018-03-04T19:17:12.086Z,45.10
2018-03-04T19:19:40.333Z,45.10
2018-03-04T19:22:08.865Z,45.80
2018-03-04T19:24:37.172Z,45.30
2018-03-04T19:27:05.416Z,46.10
2018-03-04T19:29:34.874Z,45.70
2018-03-04T19:32:05.081Z,45.30
2018-03-04T19:34:33.445Z,45.20
2018-03-04T19:37:01.853Z,45.30
2018-03-04T19:39:30.890Z,45.60
2018-03-04T19:41:59.205Z,45.50
2018-03-04T19:44:27.961Z,46.00
2018-03-04T19:46:56.217Z,45.60
2018-03-04T19:49:24.768Z,46.10
2018-03-04T19:51:53.053Z,46.40
2018-03-04T19:54:22.074Z,45.30
2018-03-04T19:56:50.491Z,45.30
2018-03-04T19:59:18.805Z,45.60
2018-03-04T20:01:47.829Z,45.70
2018-03-04T20:04:16.156Z,45.70
2018-03-04T20:06:44.775Z,45.70
2018-03-04T20:09:13.216Z,46.10
2018-03-04T20:11:41.597Z,46.10
2018-03-04T20:14:09.997Z,45.90
2018-03-04T20:16:39.013Z,46.20
2018-03-04T20:19:07.341Z,46.10
2018-03-04T20:21:35.750Z,46.30
2018-03-04T20:24:04.765Z,46.30
2018-03-04T20:26:33.337Z,46.30
2018-03-04T20:29:01.866Z,46.20
2018-03-04T20:31:30.675Z,46.10
2018-03-04T20:34:00.085Z,45.80
2018-03-04T20:36:28.391Z,46.10
2018-03-04T20:38:56.642Z,46.30
2018-03-04T20:41:24.912Z,46.30
2018-03-04T20:43:53.190Z,46.70
2018-03-04T20:46:22.954Z,46.90
2018-03-04T20:48:51.476Z,46.90
2018-03-04T20:51:19.789Z,46.80
2018-03-04T20:53:48.041Z,46.30
2018-03-04T20:56:16.289Z,46.60
2018-03-04T20:58:44.561Z,47.10
2018-03-04T21:01:12.818Z,47.40
2018-03-04T21:03:41.249Z,46.50
2018-03-04T21:06:09.681Z,47.10
2018-03-04T21:08:37.926Z,47.80
2018-03-04T21:11:06.181Z,47.90
2018-03-04T21:13:34.533Z,47.50
2018-03-04T21:16:02.776Z,48.20
2018-03-04T21:18:31.081Z,47.90
2018-03-04T21:20:59.293Z,48.20
2018-03-04T21:23:27.532Z,48.00
2018-03-04T21:25:55.780Z,47.90
2018-03-04T21:28:25.213Z,47.50
2018-03-04T21:30:53.457Z,47.50
2018-03-04T21:33:21.834Z,47.80
2018-03-04T21:35:51.169Z,47.80
2018-03-04T21:38:19.414Z,47.80
2018-03-04T21:40:47.854Z,47.80
2018-03-04T21:43:16.126Z,48.20
2018-03-04T21:45:44.387Z,48.10
2018-03-04T21:48:12.614Z,48.40
2018-03-04T21:50:40.885Z,48.70
2018-03-04T21:53:09.141Z,48.50
2018-03-04T21:55:37.384Z,47.90
2018-03-04T21:58:05.969Z,48.20
2018-03-04T22:00:34.213Z,48.20
2018-03-04T22:03:02.453Z,48.90
2018-03-04T22:05:30.721Z,48.20
2018-03-04T22:08:00.357Z,48.20
2018-03-04T22:10:29.368Z,48.40
2018-03-04T22:12:58.397Z,48.10
2018-03-04T22:15:26.701Z,48.10
2018-03-04T22:17:54.953Z,48.50
2018-03-04T22:20:23.538Z,48.30
2018-03-04T22:22:51.781Z,48.20
2018-03-04T22:25:20.024Z,48.60
2018-03-04T22:27:49.062Z,48.30
2018-03-04T22:30:17.305Z,48.30
2018-03-04T22:32:46.319Z,48.90
2018-03-04T22:35:15.346Z,48.30
2018-03-04T22:37:43.584Z,48.30
2018-03-04T22:40:11.832Z,48.60
2018-03-04T22:42:40.521Z,49.30
2018-03-04T22:45:08.771Z,48.80
2018-03-04T22:47:37.020Z,48.70
2018-03-04T22:50:06.233Z,48.60
2018-03-04T22:52:34.475Z,49.30
2018-03-04T22:55:02.717Z,48.80
2018-03-04T22:57:30.989Z,48.70
2018-03-04T22:59:59.245Z,49.00
2018-03-04T23:02:27.488Z,48.90
2018-03-04T23:04:55.805Z,49.20
2018-03-04T23:07:24.049Z,49.60
2018-03-04T23:09:52.915Z,49.00
2018-03-04T23:12:22.074Z,49.30
2018-03-04T23:14:50.300Z,49.30
2018-03-04T23:17:19.306Z,49.40
2018-03-04T23:19:47.581Z,49.30
2018-03-04T23:22:15.829Z,49.20
2018-03-04T23:24:44.073Z,49.50
2018-03-04T23:27:12.574Z,49.40
2018-03-04T23:29:40.817Z,49.50
2018-03-04T23:32:09.064Z,49.50
2018-03-04T23:34:37.334Z,49.70
2018-03-04T23:37:06.342Z,49.50
2018-03-04T23:39:34.698Z,49.40
2018-03-04T23:42:03.733Z,49.40
2018-03-04T23:44:31.989Z,49.40
2018-03-04T23:47:00.238Z,49.30
2018-03-04T23:49:28.880Z,49.40
2018-03-04T23:51:57.114Z,49.60
2018-03-04T23:54:25.381Z,50.00
2018-03-04T23:56:54.390Z,49.80
2018-03-04T23:59:22.632Z,49.80
